Startpagina
METAR-TAF:

METAR-TAF

Vliegvelden :

Internationale luchthaven Chengdu Shuangliu

Chengdu, China

breedte: 30-40N, lengte: 104-01E, hoogte: 508 m

Actueel weer

Dit bericht is 15 minuten geleden gemaakt, om 23:00 UTC
Weinig wind
Temperatuur 19°C
Vochtigheid 88%
Druk 1019 hPa
Zicht 10 km of meer
geen wolken onder 1500 m en geen cumulonimbus

METAR: ZUUU 262300Z 00000MPS CAVOK 19/17 Q1019 NOSIG

Tijdstip: 07:15 (23:15 UTC)

Verwachting

Dit bericht is 9 uur en het 12 minuten geleden gemaakt, om 14:03 UTC
Verwachting geldig van 26 om 18 UTC tot 27 om 18 UTC
Wind 6 kt uit het zuidzuidwesten
Zicht: 5000 m
Verspreide wolken op 5000 ft
nevel

TAF: ZUUU 261403Z 2618/2718 20003MPS 5000 BR SCT050 TX29/2707Z TN18/2623Z

Waarnemingen en weersverwachtingen van meer dan 4000 vliegvelden (METAR en TAF).

De beschikbare stations zijn de gele en rode punten op de kaart.

Ga met uw muis naar het station om de naam te zien.

Klik dan om waarnemingen en weersverwachtingen te zien.

kaart wijzigen: klik op de groene knoppen met een zwart kruis om in te zoomen, op de groene knop met een streepje om uit te zoomen of op de groene pijlen voor aangrenzende kaarten.


METAR-TAF: